Schedule Details

Flight Number: CPX812
Departure: Bucholz AAF Airport (PKWA) at N/A
Arrival: Daniel K Inouye International Airport (PHNL) at N/A
Route: NDJ 1130N/17200E MANRE R584 MCFLY R584 CHOKO


Current Weather Information
PKWA 152040Z AUTO 05019G23KT 10SM SCT021 SCT026 BKN041 28/24 A2983 RMK AO2 T02750235
PHNL 151953Z 02011KT 10SM FEW025 SCT040 BKN060 23/15 A3002 RMK AO2 SLP165 T02330150

Route Map